createdAt,value
2022-12-01T00:01:33.979Z,21.00
2022-12-01T00:04:00.884Z,21.00
2022-12-01T00:06:27.823Z,20.94
2022-12-01T00:08:54.779Z,20.94
2022-12-01T00:11:21.674Z,20.88
2022-12-01T00:13:48.572Z,20.88
2022-12-01T00:16:15.581Z,20.81
2022-12-01T00:18:42.566Z,20.81
2022-12-01T00:21:09.490Z,20.75
2022-12-01T00:23:36.399Z,20.75
2022-12-01T00:26:03.313Z,20.69
2022-12-01T00:28:30.228Z,20.69
2022-12-01T00:30:57.157Z,20.63
2022-12-01T00:33:24.059Z,20.63
2022-12-01T00:35:50.949Z,20.56
2022-12-01T00:38:17.862Z,20.56
2022-12-01T00:40:44.766Z,20.50
2022-12-01T00:43:11.781Z,20.50
2022-12-01T00:45:38.751Z,20.50
2022-12-01T00:48:05.708Z,20.44
2022-12-01T00:50:32.628Z,20.44
2022-12-01T00:52:59.557Z,20.38
2022-12-01T00:55:26.504Z,20.38
2022-12-01T00:57:53.406Z,20.31
2022-12-01T01:00:20.318Z,20.31
2022-12-01T01:02:47.288Z,20.31
2022-12-01T01:05:14.206Z,20.25
2022-12-01T01:07:41.186Z,20.25
2022-12-01T01:10:08.110Z,20.19
2022-12-01T01:12:35.038Z,20.19
2022-12-01T01:15:01.939Z,20.19
2022-12-01T01:17:28.864Z,20.13
2022-12-01T01:19:55.779Z,20.13
2022-12-01T01:22:22.751Z,20.13
2022-12-01T01:24:49.691Z,20.06
2022-12-01T01:27:16.590Z,20.06
2022-12-01T01:29:43.496Z,20.06
2022-12-01T01:32:10.468Z,20.00
2022-12-01T01:34:37.386Z,20.00
2022-12-01T01:37:04.298Z,20.00
2022-12-01T01:39:31.218Z,19.94
2022-12-01T01:41:58.127Z,19.94
2022-12-01T01:44:25.037Z,19.94
2022-12-01T01:46:51.967Z,19.88
2022-12-01T01:49:18.867Z,19.88
2022-12-01T01:51:45.754Z,19.88
2022-12-01T01:54:12.652Z,19.81
2022-12-01T01:56:39.567Z,19.81
2022-12-01T01:59:06.495Z,19.75
2022-12-01T02:01:33.524Z,19.75
2022-12-01T02:04:00.481Z,19.75
2022-12-01T02:06:27.391Z,19.75
2022-12-01T02:08:54.304Z,19.69
2022-12-01T02:11:21.211Z,19.69
2022-12-01T02:13:48.115Z,19.69
2022-12-01T02:16:15.093Z,19.63
2022-12-01T02:18:42.009Z,19.63
2022-12-01T02:21:08.919Z,19.63
2022-12-01T02:23:35.842Z,19.56
2022-12-01T02:26:02.751Z,19.56
2022-12-01T02:28:29.650Z,19.56
2022-12-01T02:30:56.633Z,19.56
2022-12-01T02:33:23.559Z,19.50
2022-12-01T02:35:50.489Z,19.50
2022-12-01T02:38:17.406Z,19.50
2022-12-01T02:40:44.328Z,19.44
2022-12-01T02:43:11.255Z,19.44
2022-12-01T02:45:38.161Z,19.44
2022-12-01T02:48:05.073Z,19.44
2022-12-01T02:50:32.019Z,19.38
2022-12-01T02:52:58.951Z,19.38
2022-12-01T02:55:25.863Z,19.38
2022-12-01T02:57:52.796Z,19.38
2022-12-01T03:00:19.730Z,19.31
2022-12-01T03:02:46.674Z,19.31
2022-12-01T03:05:13.621Z,19.31
2022-12-01T03:07:40.572Z,19.31
2022-12-01T03:10:07.551Z,19.25
2022-12-01T03:12:34.474Z,19.25
2022-12-01T03:15:01.382Z,19.25
2022-12-01T03:17:28.273Z,19.25
2022-12-01T03:19:55.198Z,19.19
2022-12-01T03:22:22.130Z,19.19
2022-12-01T03:24:49.035Z,19.19
2022-12-01T03:27:15.962Z,19.19
2022-12-01T03:29:42.869Z,19.13
2022-12-01T03:32:09.785Z,19.13
2022-12-01T03:34:36.686Z,19.13
2022-12-01T03:37:03.645Z,19.13
2022-12-01T03:39:30.669Z,19.13
2022-12-01T03:41:57.589Z,19.06
2022-12-01T03:44:24.505Z,19.06
2022-12-01T03:46:51.404Z,19.06
2022-12-01T03:49:18.357Z,19.06
2022-12-01T03:51:45.274Z,19.06
2022-12-01T03:54:12.176Z,19.06
2022-12-01T03:56:39.082Z,19.06
2022-12-01T03:59:05.992Z,19.13
2022-12-01T04:01:32.992Z,19.13
2022-12-01T04:03:59.953Z,19.13
2022-12-01T04:06:26.884Z,19.19
2022-12-01T04:08:53.781Z,19.19
2022-12-01T04:11:20.683Z,19.25
2022-12-01T04:13:47.574Z,19.31
2022-12-01T04:16:14.529Z,19.38
2022-12-01T04:18:41.471Z,19.50
2022-12-01T04:21:08.481Z,19.56
2022-12-01T04:23:35.397Z,19.69
2022-12-01T04:26:02.328Z,19.75
2022-12-01T04:28:29.259Z,19.75
2022-12-01T04:30:56.209Z,19.81
2022-12-01T04:33:23.143Z,19.63
2022-12-01T04:35:50.086Z,21.44
2022-12-01T04:38:17.007Z,26.94
2022-12-01T04:40:43.927Z,29.44
2022-12-01T04:43:10.836Z,29.94
2022-12-01T04:45:37.779Z,29.94
2022-12-01T04:48:04.709Z,29.75
2022-12-01T04:50:31.616Z,29.56
2022-12-01T04:52:58.586Z,29.44
2022-12-01T04:55:25.508Z,29.38
2022-12-01T04:57:52.454Z,29.19
2022-12-01T05:00:19.373Z,28.31
2022-12-01T05:02:46.296Z,26.75
2022-12-01T05:05:13.207Z,25.31
2022-12-01T05:07:40.179Z,23.44
2022-12-01T05:10:07.140Z,22.31
2022-12-01T05:12:34.061Z,22.13
2022-12-01T05:15:00.972Z,25.44
2022-12-01T05:17:30.526Z,29.19
2022-12-01T05:20:00.943Z,31.00
2022-12-01T05:23:03.232Z,31.56
2022-12-01T05:25:14.782Z,27.81
2022-12-01T05:27:41.730Z,25.56
2022-12-01T05:30:08.773Z,27.88
2022-12-01T05:32:35.690Z,30.75
2022-12-01T05:35:02.647Z,31.88
2022-12-01T05:37:29.557Z,32.19
2022-12-01T05:39:56.458Z,31.00
2022-12-01T05:42:23.367Z,27.81
2022-12-01T05:44:50.319Z,26.38
2022-12-01T05:47:17.250Z,25.88
2022-12-01T05:49:44.170Z,28.56
2022-12-01T05:52:11.094Z,31.19
2022-12-01T05:54:38.009Z,32.13
2022-12-01T05:57:04.943Z,32.25
2022-12-01T05:59:31.875Z,29.56
2022-12-01T06:01:58.821Z,28.25
2022-12-01T06:04:25.814Z,30.50
2022-12-01T06:06:52.738Z,32.31
2022-12-01T06:09:19.712Z,32.94
2022-12-01T06:11:51.203Z,32.31
2022-12-01T06:14:20.294Z,31.44
2022-12-01T06:16:47.253Z,31.19
2022-12-01T06:19:14.204Z,31.81
2022-12-01T06:21:41.117Z,33.06
2022-12-01T06:24:08.016Z,33.69
2022-12-01T06:26:34.965Z,33.69
2022-12-01T06:29:01.877Z,33.25
2022-12-01T06:31:28.917Z,33.31
2022-12-01T06:33:55.855Z,33.88
2022-12-01T06:36:22.758Z,34.25
2022-12-01T06:38:49.681Z,34.44
2022-12-01T06:41:16.580Z,34.63
2022-12-01T06:43:43.563Z,34.75
2022-12-01T06:46:10.518Z,35.00
2022-12-01T06:48:37.460Z,35.19
2022-12-01T06:51:04.365Z,35.44
2022-12-01T06:53:31.268Z,35.63
2022-12-01T06:55:58.191Z,35.75
2022-12-01T06:58:25.234Z,35.88
2022-12-01T07:00:52.536Z,35.94
2022-12-01T07:03:19.447Z,35.81
2022-12-01T07:05:46.376Z,35.81
2022-12-01T07:08:13.336Z,35.88
2022-12-01T07:10:40.290Z,35.81
2022-12-01T07:13:07.222Z,35.75
2022-12-01T07:15:34.138Z,35.75
2022-12-01T07:18:01.086Z,35.88
2022-12-01T07:20:28.006Z,35.94
2022-12-01T07:22:55.089Z,35.88
2022-12-01T07:25:21.998Z,35.75
2022-12-01T07:27:48.914Z,35.69
2022-12-01T07:30:15.825Z,35.75
2022-12-01T07:32:42.723Z,35.75
2022-12-01T07:35:09.644Z,35.81
2022-12-01T07:37:36.550Z,35.81
2022-12-01T07:40:03.521Z,35.81
2022-12-01T07:42:30.415Z,35.88
2022-12-01T07:44:57.314Z,35.94
2022-12-01T07:47:24.222Z,35.94
2022-12-01T07:49:51.349Z,35.88
2022-12-01T07:52:18.503Z,35.75
2022-12-01T07:54:45.407Z,35.56
2022-12-01T07:57:12.315Z,35.38
2022-12-01T07:59:39.229Z,35.19
2022-12-01T08:02:06.224Z,35.00
2022-12-01T08:04:33.176Z,34.56
2022-12-01T08:07:00.113Z,33.94
2022-12-01T08:09:27.047Z,34.13
2022-12-01T08:11:53.966Z,34.38
2022-12-01T08:14:20.854Z,34.50
2022-12-01T08:16:47.766Z,34.63
2022-12-01T08:19:14.662Z,34.69
2022-12-01T08:21:41.632Z,34.75
2022-12-01T08:24:08.535Z,34.81
2022-12-01T08:26:35.451Z,34.94
2022-12-01T08:29:02.358Z,34.94
2022-12-01T08:31:29.350Z,35.00
2022-12-01T08:33:56.327Z,35.06
2022-12-01T08:36:23.269Z,35.13
2022-12-01T08:38:50.198Z,35.19
2022-12-01T08:41:17.153Z,35.19
2022-12-01T08:44:00.133Z,35.25
2022-12-01T08:46:28.039Z,35.25
2022-12-01T08:48:55.201Z,35.31
2022-12-01T08:51:22.113Z,35.31
2022-12-01T08:53:49.036Z,35.38
2022-12-01T08:56:15.971Z,35.44
2022-12-01T08:58:42.879Z,35.50
2022-12-01T09:01:09.793Z,35.56
2022-12-01T09:03:36.703Z,35.63
2022-12-01T09:06:03.615Z,35.69
2022-12-01T09:08:30.583Z,35.81
2022-12-01T09:10:57.498Z,35.88
2022-12-01T09:13:24.435Z,35.94
2022-12-01T09:15:51.350Z,35.94
2022-12-01T09:18:18.311Z,35.88
2022-12-01T09:20:45.218Z,35.88
2022-12-01T09:23:12.132Z,35.88
2022-12-01T09:25:39.092Z,35.88
2022-12-01T09:28:06.012Z,35.81
2022-12-01T09:30:32.932Z,35.69
2022-12-01T09:33:01.132Z,35.63
2022-12-01T09:35:28.050Z,35.56
2022-12-01T09:37:54.975Z,35.44
2022-12-01T09:40:21.886Z,35.25
2022-12-01T09:42:48.819Z,35.06
2022-12-01T09:45:15.759Z,34.81
2022-12-01T09:47:42.677Z,34.63
2022-12-01T09:50:09.629Z,34.50
2022-12-01T09:52:36.538Z,34.44
2022-12-01T09:55:03.458Z,34.13
2022-12-01T09:57:30.389Z,33.69
2022-12-01T09:59:57.296Z,34.06
2022-12-01T10:02:24.299Z,34.19
2022-12-01T10:04:51.277Z,34.25
2022-12-01T10:07:18.211Z,34.38
2022-12-01T10:09:45.128Z,34.50
2022-12-01T10:12:12.058Z,34.63
2022-12-01T10:14:38.968Z,34.69
2022-12-01T10:17:05.875Z,34.75
2022-12-01T10:19:32.911Z,34.75
2022-12-01T10:21:59.949Z,34.81
2022-12-01T10:24:26.882Z,34.81
2022-12-01T10:26:53.783Z,34.88
2022-12-01T10:29:20.730Z,34.94
2022-12-01T10:31:47.748Z,35.00
2022-12-01T10:34:14.768Z,35.06
2022-12-01T10:36:41.707Z,35.13
2022-12-01T10:39:08.637Z,35.19
2022-12-01T10:41:35.543Z,35.31
2022-12-01T10:44:02.454Z,35.31
2022-12-01T10:46:29.357Z,35.38
2022-12-01T10:48:56.260Z,35.44
2022-12-01T10:51:23.179Z,35.50
2022-12-01T10:53:50.065Z,35.56
2022-12-01T10:56:16.990Z,35.63
2022-12-01T10:58:43.914Z,35.69
2022-12-01T11:01:10.941Z,35.63
2022-12-01T11:03:38.077Z,35.63
2022-12-01T11:06:05.100Z,35.56
2022-12-01T11:08:31.989Z,35.50
2022-12-01T11:10:58.921Z,35.38
2022-12-01T11:13:25.827Z,35.31
2022-12-01T11:15:52.747Z,35.13
2022-12-01T11:18:19.670Z,35.00
2022-12-01T11:20:46.663Z,34.81
2022-12-01T11:23:13.638Z,34.63
2022-12-01T11:25:40.558Z,34.44
2022-12-01T11:28:07.490Z,34.31
2022-12-01T11:30:34.405Z,34.19
2022-12-01T11:33:01.320Z,34.31
2022-12-01T11:35:28.221Z,34.44
2022-12-01T11:38:27.696Z,34.50
2022-12-01T11:40:42.109Z,34.50
2022-12-01T11:43:09.028Z,34.56
2022-12-01T11:45:36.030Z,34.69
2022-12-01T11:48:02.963Z,34.75
2022-12-01T11:50:29.884Z,34.88
2022-12-01T11:52:56.807Z,34.94
2022-12-01T11:55:23.701Z,35.00
2022-12-01T11:57:50.627Z,35.06
2022-12-01T12:00:17.544Z,35.13
2022-12-01T12:02:44.509Z,35.19
2022-12-01T12:05:11.511Z,35.31
2022-12-01T12:07:38.494Z,35.38
2022-12-01T12:10:05.448Z,35.44
2022-12-01T12:12:32.391Z,35.44
2022-12-01T12:14:59.307Z,35.44
2022-12-01T12:17:26.290Z,35.44
2022-12-01T12:20:07.564Z,35.50
2022-12-01T12:22:34.935Z,35.31
2022-12-01T12:25:01.898Z,35.25
2022-12-01T12:27:28.836Z,35.19
2022-12-01T12:29:55.821Z,35.06
2022-12-01T12:32:22.726Z,34.88
2022-12-01T12:34:49.651Z,34.75
2022-12-01T12:37:16.628Z,34.56
2022-12-01T12:39:43.561Z,34.44
2022-12-01T12:42:10.522Z,34.25
2022-12-01T12:44:37.898Z,34.06
2022-12-01T12:47:05.093Z,34.06
2022-12-01T12:49:32.043Z,34.19
2022-12-01T12:52:02.592Z,34.25
2022-12-01T12:54:33.672Z,34.31
2022-12-01T12:57:00.633Z,34.31
2022-12-01T12:59:27.550Z,34.38
2022-12-01T13:01:54.512Z,34.50
2022-12-01T13:04:21.469Z,34.56
2022-12-01T13:06:48.384Z,34.69
2022-12-01T13:09:15.318Z,34.69
2022-12-01T13:11:42.231Z,34.81
2022-12-01T13:14:09.169Z,34.88
2022-12-01T13:16:36.088Z,34.94
2022-12-01T13:19:02.987Z,35.00
2022-12-01T13:21:29.987Z,35.06
2022-12-01T13:23:56.927Z,35.13
2022-12-01T13:26:23.921Z,35.19
2022-12-01T13:28:50.856Z,35.25
2022-12-01T13:31:17.850Z,35.31
2022-12-01T13:33:44.789Z,35.38
2022-12-01T13:38:58.658Z,35.25
2022-12-01T13:41:25.579Z,35.13
2022-12-01T13:43:52.490Z,35.00
2022-12-01T13:46:19.440Z,34.88
2022-12-01T13:48:46.373Z,34.75
2022-12-01T13:51:13.289Z,34.56
2022-12-01T13:53:40.221Z,34.50
2022-12-01T13:56:07.162Z,34.50
2022-12-01T13:58:34.102Z,34.44
2022-12-01T14:01:01.073Z,34.44
2022-12-01T14:03:28.125Z,34.44
2022-12-01T14:05:55.080Z,34.44
2022-12-01T14:08:23.554Z,34.44
2022-12-01T14:10:50.775Z,34.50
2022-12-01T14:13:17.698Z,34.56
2022-12-01T14:15:44.709Z,34.63
2022-12-01T14:18:11.645Z,34.69
2022-12-01T14:20:38.583Z,34.69
2022-12-01T14:23:05.511Z,34.63
2022-12-01T14:25:32.463Z,34.50
2022-12-01T14:27:59.370Z,34.38
2022-12-01T14:30:26.286Z,34.25
2022-12-01T14:32:53.193Z,34.06
2022-12-01T14:35:20.095Z,34.00
2022-12-01T14:37:47.024Z,34.00
2022-12-01T14:40:13.982Z,34.06
2022-12-01T14:42:40.913Z,34.06
2022-12-01T14:45:07.894Z,34.13
2022-12-01T14:47:34.914Z,34.13
2022-12-01T14:50:01.842Z,34.19
2022-12-01T14:52:28.834Z,34.31
2022-12-01T14:54:55.748Z,34.38
2022-12-01T14:57:22.668Z,34.50
2022-12-01T14:59:49.576Z,34.50
2022-12-01T15:02:16.542Z,34.56
2022-12-01T15:04:43.529Z,34.69
2022-12-01T15:07:10.448Z,34.75
2022-12-01T15:09:37.458Z,34.81
2022-12-01T15:12:04.421Z,34.88
2022-12-01T15:14:31.319Z,35.00
2022-12-01T15:16:58.359Z,35.00
2022-12-01T15:19:25.357Z,35.00
2022-12-01T15:21:52.355Z,34.88
2022-12-01T15:24:19.284Z,34.75
2022-12-01T15:26:46.272Z,34.63
2022-12-01T15:29:13.243Z,34.50
2022-12-01T15:31:40.244Z,34.38
2022-12-01T15:34:07.231Z,34.19
2022-12-01T15:36:34.144Z,33.69
2022-12-01T15:39:05.396Z,33.81
2022-12-01T15:41:34.046Z,33.94
2022-12-01T15:44:00.949Z,34.00
2022-12-01T15:46:27.890Z,34.13
2022-12-01T15:48:54.790Z,34.19
2022-12-01T15:51:21.685Z,34.25
2022-12-01T15:53:48.619Z,34.25
2022-12-01T15:56:15.595Z,34.31
2022-12-01T15:58:42.587Z,34.38
2022-12-01T16:01:09.548Z,34.44
2022-12-01T16:03:36.522Z,34.44
2022-12-01T16:06:03.509Z,34.50
2022-12-01T16:08:30.479Z,34.56
2022-12-01T16:10:57.399Z,34.56
2022-12-01T16:13:24.332Z,34.44
2022-12-01T16:15:51.232Z,34.31
2022-12-01T16:18:18.188Z,34.25
2022-12-01T16:20:45.099Z,34.19
2022-12-01T16:23:12.033Z,34.19
2022-12-01T16:25:38.939Z,34.19
2022-12-01T16:28:05.917Z,34.00
2022-12-01T16:30:32.840Z,33.88
2022-12-01T16:32:59.804Z,34.00
2022-12-01T16:35:26.726Z,34.13
2022-12-01T16:37:53.718Z,34.19
2022-12-01T16:40:20.655Z,34.31
2022-12-01T16:42:47.564Z,34.38
2022-12-01T16:45:14.474Z,34.44
2022-12-01T16:47:41.397Z,34.50
2022-12-01T16:50:08.313Z,34.56
2022-12-01T16:52:44.087Z,34.63
2022-12-01T16:55:11.789Z,34.69
2022-12-01T16:57:38.727Z,34.81
2022-12-01T17:00:05.634Z,34.81
2022-12-01T17:02:32.572Z,34.88
2022-12-01T17:04:59.534Z,34.94
2022-12-01T17:07:26.483Z,35.00
2022-12-01T17:09:53.487Z,35.13
2022-12-01T17:12:20.396Z,35.19
2022-12-01T17:14:47.405Z,35.19
2022-12-01T17:17:14.475Z,35.13
2022-12-01T17:19:41.430Z,35.00
2022-12-01T17:22:08.340Z,34.88
2022-12-01T17:24:35.249Z,34.75
2022-12-01T17:27:02.173Z,34.63
2022-12-01T17:29:29.079Z,34.50
2022-12-01T17:31:56.024Z,34.31
2022-12-01T17:34:22.936Z,34.31
2022-12-01T17:36:49.836Z,34.25
2022-12-01T17:39:16.763Z,34.25
2022-12-01T17:41:43.722Z,34.31
2022-12-01T17:44:10.659Z,34.31
2022-12-01T17:46:37.621Z,34.31
2022-12-01T17:49:04.699Z,34.38
2022-12-01T17:51:31.604Z,34.44
2022-12-01T17:53:58.527Z,34.50
2022-12-01T17:56:25.454Z,34.44
2022-12-01T17:58:52.394Z,34.38
2022-12-01T18:01:19.467Z,34.25
2022-12-01T18:03:46.457Z,34.19
2022-12-01T18:06:13.435Z,34.19
2022-12-01T18:08:40.383Z,34.19
2022-12-01T18:11:07.283Z,34.19
2022-12-01T18:13:34.217Z,33.88
2022-12-01T18:16:01.191Z,33.75
2022-12-01T18:18:28.150Z,34.06
2022-12-01T18:20:55.062Z,34.25
2022-12-01T18:23:21.977Z,34.31
2022-12-01T18:25:48.891Z,34.44
2022-12-01T18:28:15.840Z,34.56
2022-12-01T18:30:42.764Z,34.63
2022-12-01T18:33:09.673Z,34.75
2022-12-01T18:35:36.614Z,34.81
2022-12-01T18:38:03.528Z,34.88
2022-12-01T18:40:30.438Z,35.00
2022-12-01T18:42:57.450Z,35.13
2022-12-01T18:45:24.404Z,35.19
2022-12-01T18:47:51.358Z,35.25
2022-12-01T18:50:18.260Z,35.38
2022-12-01T18:52:45.186Z,35.44
2022-12-01T18:55:12.188Z,35.44
2022-12-01T18:57:39.137Z,35.50
2022-12-01T19:00:06.082Z,35.63
2022-12-01T19:02:33.069Z,35.63
2022-12-01T19:05:00.071Z,35.56
2022-12-01T19:07:29.920Z,35.44
2022-12-01T19:09:57.213Z,35.31
2022-12-01T19:12:24.134Z,35.25
2022-12-01T19:14:51.296Z,35.13
2022-12-01T19:17:18.428Z,35.06
2022-12-01T19:19:45.365Z,34.88
2022-12-01T19:22:12.274Z,34.69
2022-12-01T19:24:39.186Z,34.13
2022-12-01T19:27:06.163Z,33.75
2022-12-01T19:29:33.071Z,33.94
2022-12-01T19:32:00.535Z,34.13
2022-12-01T19:34:27.493Z,34.19
2022-12-01T19:36:54.645Z,34.25
2022-12-01T19:39:21.687Z,34.31
2022-12-01T19:41:48.620Z,34.38
2022-12-01T19:44:15.518Z,34.50
2022-12-01T19:46:42.454Z,34.56
2022-12-01T19:49:09.381Z,34.63
2022-12-01T19:51:36.306Z,34.63
2022-12-01T19:54:03.223Z,34.69
2022-12-01T19:56:30.210Z,34.75
2022-12-01T19:58:57.144Z,34.81
2022-12-01T20:01:24.115Z,34.69
2022-12-01T20:03:51.125Z,34.56
2022-12-01T20:06:18.056Z,34.31
2022-12-01T20:08:45.005Z,34.06
2022-12-01T20:11:11.926Z,33.81
2022-12-01T20:13:38.916Z,33.56
2022-12-01T20:16:05.975Z,33.31
2022-12-01T20:18:32.924Z,33.13
2022-12-01T20:20:59.917Z,32.88
2022-12-01T20:23:26.884Z,32.63
2022-12-01T20:25:53.831Z,32.38
2022-12-01T20:28:20.776Z,32.13
2022-12-01T20:30:47.707Z,31.81
2022-12-01T20:33:14.613Z,31.56
2022-12-01T20:35:41.553Z,31.31
2022-12-01T20:38:08.491Z,31.06
2022-12-01T20:40:35.402Z,30.81
2022-12-01T20:43:02.332Z,30.63
2022-12-01T20:45:29.310Z,30.38
2022-12-01T20:47:56.265Z,30.19
2022-12-01T20:50:23.183Z,29.94
2022-12-01T20:52:50.148Z,29.75
2022-12-01T20:55:17.076Z,29.56
2022-12-01T20:57:44.100Z,29.31
2022-12-01T21:00:11.013Z,29.13
2022-12-01T21:02:37.957Z,28.94
2022-12-01T21:05:04.952Z,28.75
2022-12-01T21:07:31.974Z,28.56
2022-12-01T21:09:58.977Z,28.38
2022-12-01T21:12:25.914Z,28.19
2022-12-01T21:14:53.074Z,28.00
2022-12-01T21:17:20.250Z,27.81
2022-12-01T21:19:47.162Z,27.69
2022-12-01T21:22:14.151Z,27.50
2022-12-01T21:24:43.829Z,27.38
2022-12-01T21:27:11.132Z,27.25
2022-12-01T21:29:38.053Z,27.13
2022-12-01T21:32:05.022Z,26.94
2022-12-01T21:34:31.933Z,26.81
2022-12-01T21:36:58.865Z,26.69
2022-12-01T21:39:25.839Z,26.56
2022-12-01T21:41:52.785Z,26.44
2022-12-01T21:44:19.727Z,26.31
2022-12-01T21:46:46.642Z,26.19
2022-12-01T21:49:13.560Z,26.06
2022-12-01T21:51:40.473Z,25.94
2022-12-01T21:54:07.397Z,25.88
2022-12-01T21:56:34.306Z,25.75
2022-12-01T21:59:01.282Z,25.69
2022-12-01T22:01:28.268Z,25.56
2022-12-01T22:04:00.532Z,25.44
2022-12-01T22:06:30.362Z,25.38
2022-12-01T22:08:57.815Z,25.25
2022-12-01T22:11:24.752Z,25.13
2022-12-01T22:13:51.713Z,25.06
2022-12-01T22:16:18.752Z,24.94
2022-12-01T22:18:45.818Z,24.88
2022-12-01T22:21:12.728Z,24.81
2022-12-01T22:23:39.685Z,24.69
2022-12-01T22:26:06.607Z,24.63
2022-12-01T22:28:33.535Z,24.56
2022-12-01T22:31:00.485Z,24.44
2022-12-01T22:33:27.407Z,24.38
2022-12-01T22:35:54.342Z,24.31
2022-12-01T22:38:21.256Z,24.25
2022-12-01T22:40:48.236Z,24.19
2022-12-01T22:43:15.138Z,24.13
2022-12-01T22:45:42.031Z,24.00
2022-12-01T22:48:08.960Z,23.94
2022-12-01T22:50:35.887Z,23.88
2022-12-01T22:53:02.802Z,23.81
2022-12-01T22:55:29.736Z,23.75
2022-12-01T22:57:56.701Z,23.69
2022-12-01T23:00:23.605Z,23.63
2022-12-01T23:02:50.627Z,23.56
2022-12-01T23:05:17.591Z,23.50
2022-12-01T23:07:44.590Z,23.44
2022-12-01T23:10:11.534Z,23.31
2022-12-01T23:12:38.471Z,23.25
2022-12-01T23:15:05.396Z,23.19
2022-12-01T23:17:32.295Z,23.13
2022-12-01T23:19:59.197Z,23.06
2022-12-01T23:22:26.121Z,23.00
2022-12-01T23:24:53.299Z,22.94
2022-12-01T23:27:20.284Z,22.88
2022-12-01T23:29:47.275Z,22.75
2022-12-01T23:32:14.203Z,22.69
2022-12-01T23:34:41.104Z,22.63
2022-12-01T23:37:08.046Z,22.56
2022-12-01T23:39:34.976Z,22.50
2022-12-01T23:42:01.896Z,22.44
2022-12-01T23:44:28.836Z,22.38
2022-12-01T23:46:55.781Z,22.31
2022-12-01T23:49:22.751Z,22.31
2022-12-01T23:51:49.690Z,22.19
2022-12-01T23:54:16.603Z,22.19
2022-12-01T23:56:43.518Z,22.13
2022-12-01T23:59:10.433Z,22.06
